Time;durP1;ratioP1;P1;durP2;ratioP2;P2;SDS_P1;SDS_P2;PMS_P1;PMS_P2;Temp;Humidity;BMP_temperature;BMP_pressure;BME280_temperature;BME280_humidity;BME280_pressure;Samples;Min_cycle;Max_cycle;Signal;HPM_P1;HPM_P2
2023/07/27 00:01:44;;;;;;;4.65;2.80;;;;;;;16.83;70.19;100903.22;4951348;28;20047;-93
2023/07/27 00:04:10;;;;;;;4.75;2.80;;;;;;;16.84;69.83;100898.78;4944901;28;20043;-94
2023/07/27 00:06:35;;;;;;;4.13;2.63;;;;;;;16.81;69.87;100897.19;4945752;29;20027;-94
2023/07/27 00:09:00;;;;;;;4.00;2.72;;;;;;;16.81;70.55;100897.19;4944139;29;20028;-91
2023/07/27 00:11:26;;;;;;;4.68;2.75;;;;;;;16.79;71.10;100888.53;4961933;29;20104;-89
2023/07/27 00:13:51;;;;;;;4.72;2.67;;;;;;;16.75;71.70;100894.84;4956154;29;20045;-93
2023/07/27 00:16:17;;;;;;;7.13;3.00;;;;;;;16.72;71.98;100889.78;4942598;28;20033;-92
2023/07/27 00:18:42;;;;;;;5.88;2.80;;;;;;;16.71;72.33;100893.34;4941957;29;20030;-94
2023/07/27 00:21:07;;;;;;;4.30;2.72;;;;;;;16.68;72.77;100896.13;4941109;29;20035;-93
2023/07/27 00:23:33;;;;;;;3.40;2.60;;;;;;;16.66;74.01;100890.91;4947859;29;20036;-92
2023/07/27 00:25:58;;;;;;;5.07;2.50;;;;;;;16.64;73.95;100898.06;4942814;29;20266;-92
2023/07/27 00:28:23;;;;;;;5.40;2.63;;;;;;;16.62;74.05;100884.16;4943871;29;20022;-93
2023/07/27 00:30:52;;;;;;;4.75;2.80;;;;;;;16.61;74.47;100892.09;4939471;28;20019;-91
2023/07/27 00:33:18;;;;;;;3.30;2.55;;;;;;;16.59;74.78;100883.44;4957096;28;20043;-93
2023/07/27 00:35:56;;;;;;;4.70;2.83;;;;;;;16.59;74.26;100878.16;4942514;28;20364;-91
2023/07/27 00:38:21;;;;;;;6.32;3.00;;;;;;;16.57;75.54;100880.88;4938997;29;20118;-92
2023/07/27 00:40:47;;;;;;;4.22;2.60;;;;;;;16.56;75.49;100879.19;4942665;29;20119;-92
2023/07/27 00:43:12;;;;;;;4.63;2.60;;;;;;;16.53;75.53;100877.56;4941269;29;20503;-92
2023/07/27 00:45:37;;;;;;;4.32;2.63;;;;;;;16.49;75.25;100865.53;4938099;29;20035;-92
2023/07/27 00:48:04;;;;;;;4.22;2.72;;;;;;;16.49;76.57;100867.28;4940466;29;20023;-92
2023/07/27 00:50:30;;;;;;;3.58;2.60;;;;;;;16.45;76.43;100866.59;4939803;28;20039;-93
2023/07/27 00:52:56;;;;;;;3.25;2.40;;;;;;;16.43;77.03;100863.19;4939991;29;20020;-93
2023/07/27 00:55:21;;;;;;;4.65;2.63;;;;;;;16.41;76.93;100858.97;4937811;29;20348;-92
2023/07/27 00:57:46;;;;;;;6.43;2.60;;;;;;;16.38;77.24;100854.72;4938260;29;20063;-92
2023/07/27 01:00:14;;;;;;;6.15;2.95;;;;;;;16.38;77.99;100857.34;4937007;29;20034;-92
2023/07/27 01:02:40;;;;;;;4.03;2.70;;;;;;;16.34;77.86;100848.75;4941454;29;20039;-92
2023/07/27 01:05:05;;;;;;;6.10;2.67;;;;;;;16.32;78.98;100845.34;4936131;29;20038;-92
2023/07/27 01:07:30;;;;;;;4.63;2.63;;;;;;;16.28;78.90;100835.94;4937802;29;20031;-91
2023/07/27 01:09:56;;;;;;;3.97;2.45;;;;;;;16.26;79.03;100834.31;4939160;28;20038;-92
2023/07/27 01:12:31;;;;;;;4.35;2.53;;;;;;;16.21;79.03;100838.03;4937549;28;20238;-91
2023/07/27 01:15:06;;;;;;;5.80;2.85;;;;;;;16.19;79.68;100829.38;4936441;29;20027;-93
2023/07/27 01:17:52;;;;;;;4.10;2.55;;;;;;;16.18;79.05;100829.44;4941275;29;20031;-93
2023/07/27 01:20:46;;;;;;;4.32;2.53;;;;;;;16.17;78.21;100825.97;4935852;29;20042;-92
2023/07/27 01:23:37;;;;;;;4.90;2.63;;;;;;;16.13;79.13;100824.41;4939761;28;20043;-91
2023/07/27 01:26:17;;;;;;;4.78;2.78;;;;;;;16.11;79.49;100815.78;4937035;29;20759;-92
2023/07/27 01:29:04;;;;;;;3.80;2.40;;;;;;;16.09;78.68;100817.63;4938319;29;20085;-92
2023/07/27 01:31:41;;;;;;;4.72;2.78;;;;;;;16.04;80.37;100809.97;4940046;29;20038;-93
2023/07/27 01:34:12;;;;;;;6.32;2.75;;;;;;;15.99;80.41;100813.75;4941385;29;20030;-93
2023/07/27 01:36:41;;;;;;;5.20;2.83;;;;;;;15.95;80.86;100809.59;4938579;29;20035;-93
2023/07/27 01:39:09;;;;;;;4.50;2.65;;;;;;;15.89;81.04;100801.06;4939951;28;20147;-91
2023/07/27 01:41:37;;;;;;;4.65;2.90;;;;;;;15.87;81.33;100797.69;4942376;29;20048;-92
2023/07/27 01:44:05;;;;;;;5.28;3.05;;;;;;;15.84;81.54;100794.31;4939632;29;20038;-91
2023/07/27 01:46:31;;;;;;;5.43;3.03;;;;;;;15.82;81.66;100791.78;4939928;28;20027;-93
2023/07/27 01:48:57;;;;;;;5.25;3.03;;;;;;;15.79;82.10;100794.56;4939326;28;20034;-93
2023/07/27 01:51:24;;;;;;;4.35;3.15;;;;;;;15.78;82.14;100782.38;4940448;29;20066;-92
2023/07/27 01:53:49;;;;;;;5.00;2.95;;;;;;;15.75;82.15;100777.25;4939324;29;20502;-92
2023/07/27 01:56:15;;;;;;;5.60;3.33;;;;;;;15.73;83.01;100781.72;4938397;29;20558;-93
2023/07/27 01:58:41;;;;;;;6.65;3.47;;;;;;;15.71;83.21;100770.50;4942068;29;20429;-94
2023/07/27 02:01:07;;;;;;;5.15;3.40;;;;;;;15.67;83.80;100763.69;4938249;28;20514;-93
2023/07/27 02:03:33;;;;;;;6.35;3.25;;;;;;;15.65;83.82;100766.38;4936666;28;20035;-93
2023/07/27 02:06:00;;;;;;;6.10;3.47;;;;;;;15.63;84.00;100763.81;4938534;29;20679;-92
2023/07/27 02:08:26;;;;;;;5.32;3.20;;;;;;;15.61;84.32;100754.34;4938514;28;20316;-92
2023/07/27 02:10:57;;;;;;;5.20;3.10;;;;;;;15.59;84.61;100767.50;4936528;29;20554;-93
2023/07/27 02:13:35;;;;;;;5.38;3.20;;;;;;;15.57;84.18;100764.13;4937664;28;20106;-94
2023/07/27 02:16:28;;;;;;;5.55;3.10;;;;;;;15.55;84.13;100750.22;4938227;29;20475;-93
2023/07/27 02:18:55;;;;;;;5.75;3.00;;;;;;;15.52;85.30;100739.91;4937182;29;20118;-93
2023/07/27 02:21:22;;;;;;;5.95;3.30;;;;;;;15.48;85.66;100728.69;4939814;28;20075;-93
2023/07/27 02:23:48;;;;;;;6.25;2.70;;;;;;;15.47;85.95;100721.75;4941300;28;20019;-93
2023/07/27 02:26:14;;;;;;;4.43;3.05;;;;;;;15.47;86.54;100719.13;4940504;29;20395;-94
2023/07/27 02:28:39;;;;;;;5.30;3.00;;;;;;;15.48;86.54;100707.72;4935086;28;20090;-92
2023/07/27 02:31:04;;;;;;;4.47;2.88;;;;;;;15.51;86.47;100704.13;4941233;28;20039;-93
2023/07/27 02:33:30;;;;;;;5.82;3.20;;;;;;;15.47;86.84;100702.56;4942187;28;20558;-93
2023/07/27 02:35:56;;;;;;;4.78;2.97;;;;;;;15.44;86.46;100700.97;4935238;29;20023;-92
2023/07/27 02:38:21;;;;;;;4.72;3.10;;;;;;;15.45;86.76;100696.53;4936894;29;20073;-92
2023/07/27 02:40:46;;;;;;;4.90;3.05;;;;;;;15.42;87.51;100696.69;4940804;28;20433;-91
2023/07/27 02:43:12;;;;;;;4.57;2.90;;;;;;;15.42;88.10;100691.44;4936227;28;20573;-93
2023/07/27 02:45:37;;;;;;;4.93;2.97;;;;;;;15.44;87.36;100694.84;4938056;29;20030;-93
2023/07/27 02:48:02;;;;;;;4.63;2.67;;;;;;;15.41;88.00;100697.59;4942970;28;20023;-92
2023/07/27 02:50:27;;;;;;;4.47;2.60;;;;;;;15.38;87.79;100693.38;4937121;29;20036;-92
2023/07/27 02:52:53;;;;;;;4.45;2.88;;;;;;;15.38;88.44;100684.66;4939435;29;20034;-93
2023/07/27 02:55:18;;;;;;;4.63;2.60;;;;;;;15.38;88.13;100676.78;4937008;29;20435;-91
2023/07/27 02:57:44;;;;;;;4.55;2.58;;;;;;;15.36;88.40;100676.03;4943555;29;20075;-91
2023/07/27 03:00:09;;;;;;;4.88;2.60;;;;;;;15.32;87.88;100664.81;4941788;28;20042;-91
2023/07/27 03:02:35;;;;;;;4.43;3.13;;;;;;;15.27;88.52;100657.19;4938515;28;20106;-92
2023/07/27 03:05:02;;;;;;;4.97;3.00;;;;;;;15.29;89.12;100660.59;4933831;29;20470;-92
2023/07/27 03:07:28;;;;;;;7.18;3.00;;;;;;;15.28;89.26;100668.53;4935527;28;20075;-91
2023/07/27 03:09:53;;;;;;;4.60;3.08;;;;;;;15.27;89.21;100661.59;4933926;29;20036;-90
2023/07/27 03:12:18;;;;;;;4.78;2.97;;;;;;;15.27;89.08;100667.69;4939860;28;20051;-92
2023/07/27 03:14:43;;;;;;;5.60;3.25;;;;;;;15.26;89.57;100657.28;4938972;29;20024;-91
2023/07/27 03:17:09;;;;;;;5.68;3.03;;;;;;;15.24;89.47;100652.09;4936818;29;20034;-91
2023/07/27 03:19:34;;;;;;;5.43;3.05;;;;;;;15.22;89.79;100642.63;4939927;29;20118;-91
2023/07/27 03:22:00;;;;;;;5.10;3.10;;;;;;;15.23;89.46;100641.69;4938798;29;20043;-91
2023/07/27 03:24:25;;;;;;;9.13;3.30;;;;;;;15.20;89.85;100634.81;4940508;28;20032;-91
2023/07/27 03:26:50;;;;;;;6.32;3.38;;;;;;;15.19;90.06;100638.38;4936555;28;20091;-92
2023/07/27 03:29:16;;;;;;;5.00;3.25;;;;;;;15.15;90.30;100635.03;4937618;29;20043;-91
2023/07/27 03:31:41;;;;;;;6.05;3.08;;;;;;;15.13;90.96;100617.72;4938952;29;20031;-90
2023/07/27 03:34:06;;;;;;;5.22;3.33;;;;;;;15.10;91.78;100613.47;4938845;28;20028;-89
2023/07/27 03:36:31;;;;;;;4.70;3.03;;;;;;;15.11;91.31;100603.84;4939241;29;20039;-90
2023/07/27 03:38:57;;;;;;;5.68;3.53;;;;;;;15.12;91.13;100595.06;4937377;28;20032;-89
2023/07/27 03:41:22;;;;;;;6.70;3.58;;;;;;;15.09;91.65;100589.97;4936004;29;20035;-89
2023/07/27 03:43:47;;;;;;;5.35;3.60;;;;;;;15.08;91.71;100577.78;4941894;28;20035;-89
2023/07/27 03:46:13;;;;;;;6.07;3.40;;;;;;;15.06;91.87;100563.91;4937368;28;20164;-89
2023/07/27 03:48:38;;;;;;;5.00;3.20;;;;;;;15.03;92.09;100550.03;4945353;28;20027;-89
2023/07/27 03:51:03;;;;;;;5.28;3.60;;;;;;;15.01;93.22;100546.66;4942556;28;20027;-89
2023/07/27 03:53:29;;;;;;;5.07;3.20;;;;;;;14.98;92.92;100544.19;4945145;28;20278;-90
2023/07/27 03:55:55;;;;;;;5.13;3.17;;;;;;;14.97;92.93;100547.72;4939825;28;20505;-89
2023/07/27 03:58:20;;;;;;;4.07;3.15;;;;;;;14.97;93.72;100549.47;4944712;29;20489;-89
2023/07/27 04:00:46;;;;;;;4.47;2.95;;;;;;;14.96;93.33;100548.66;4941544;29;20035;-89
2023/07/27 04:03:11;;;;;;;4.53;3.00;;;;;;;14.96;93.37;100547.78;4941540;28;20062;-89
2023/07/27 04:05:36;;;;;;;4.55;2.80;;;;;;;14.95;93.20;100533.84;4939280;29;20027;-90
2023/07/27 04:08:01;;;;;;;4.53;2.90;;;;;;;14.92;93.69;100534.00;4942286;29;20034;-90
2023/07/27 04:10:29;;;;;;;5.03;2.85;;;;;;;14.90;94.02;100525.38;4938850;29;20035;-89
2023/07/27 04:12:54;;;;;;;4.30;2.90;;;;;;;14.89;94.26;100525.44;4938275;29;20089;-90
2023/07/27 04:15:20;;;;;;;4.53;2.65;;;;;;;14.86;94.84;100523.81;4941326;28;20491;-89
2023/07/27 04:17:45;;;;;;;4.93;3.00;;;;;;;14.86;94.44;100529.03;4941653;29;20035;-89
2023/07/27 04:20:10;;;;;;;4.80;2.70;;;;;;;14.85;94.40;100525.59;4937705;28;20039;-90
2023/07/27 04:22:36;;;;;;;3.97;2.60;;;;;;;14.84;94.86;100515.22;4943334;29;20505;-89
2023/07/27 04:25:01;;;;;;;5.18;2.90;;;;;;;14.82;95.09;100517.06;4942728;28;20078;-89
2023/07/27 04:27:27;;;;;;;4.35;2.70;;;;;;;14.80;95.60;100517.09;4943156;28;20119;-90
2023/07/27 04:29:52;;;;;;;3.65;2.53;;;;;;;14.78;94.75;100503.22;4939655;28;20043;-89
2023/07/27 04:32:17;;;;;;;4.75;2.65;;;;;;;14.76;95.44;100501.63;4943952;29;20041;-90
2023/07/27 04:34:42;;;;;;;4.15;2.83;;;;;;;14.76;94.97;100504.25;4942377;28;20391;-89
2023/07/27 04:37:08;;;;;;;3.78;2.80;;;;;;;14.77;95.63;100492.84;4939031;28;20036;-89
2023/07/27 04:39:33;;;;;;;3.83;2.50;;;;;;;14.75;95.63;100487.69;4952740;29;20035;-90
2023/07/27 04:41:58;;;;;;;4.38;2.58;;;;;;;14.72;96.11;100483.44;4939831;28;20027;-90
2023/07/27 04:44:23;;;;;;;4.70;2.60;;;;;;;14.69;95.82;100478.34;4936873;29;20036;-89
2023/07/27 04:46:49;;;;;;;3.35;2.20;;;;;;;14.67;95.92;100480.19;4937793;29;20184;-89
2023/07/27 04:49:14;;;;;;;3.88;2.30;;;;;;;14.66;96.69;100475.88;4937260;29;20479;-89
2023/07/27 04:51:39;;;;;;;3.22;2.28;;;;;;;14.63;97.20;100473.41;4941788;29;20378;-89
2023/07/27 04:54:04;;;;;;;3.45;2.15;;;;;;;14.63;96.21;100470.78;4941162;29;20023;-89
2023/07/27 04:56:30;;;;;;;3.90;2.20;;;;;;;14.60;97.43;100468.31;4943085;29;20387;-89
2023/07/27 04:58:55;;;;;;;5.07;2.67;;;;;;;14.59;97.25;100461.38;4941695;28;21982;-88
2023/07/27 05:01:20;;;;;;;4.10;2.15;;;;;;;14.60;97.31;100464.84;4940318;28;20036;-89
2023/07/27 05:03:46;;;;;;;3.08;2.17;;;;;;;14.58;97.37;100459.69;4940934;29;20028;-89
2023/07/27 05:06:11;;;;;;;4.22;2.30;;;;;;;14.57;97.36;100458.84;4939085;28;20479;-89
2023/07/27 05:08:37;;;;;;;4.55;2.20;;;;;;;14.56;97.27;100458.91;4940135;29;20030;-88
2023/07/27 05:11:03;;;;;;;4.38;2.47;;;;;;;14.55;97.89;100455.44;4939687;28;20249;-88
2023/07/27 05:13:28;;;;;;;3.45;2.10;;;;;;;14.56;97.77;100443.19;4938232;28;20534;-89
2023/07/27 05:15:54;;;;;;;3.42;2.10;;;;;;;14.55;97.83;100444.13;4941439;28;20027;-89
2023/07/27 05:18:19;;;;;;;3.28;2.40;;;;;;;14.56;98.61;100440.56;4935650;29;20064;-89
2023/07/27 05:20:44;;;;;;;2.58;1.95;;;;;;;14.55;98.47;100441.50;4943131;28;20032;-89
2023/07/27 05:23:10;;;;;;;3.10;2.20;;;;;;;14.55;98.57;100442.34;4950194;28;20106;-89
2023/07/27 05:25:35;;;;;;;3.58;2.13;;;;;;;14.58;99.09;100438.72;4938822;29;20063;-89
2023/07/27 05:28:00;;;;;;;3.22;2.42;;;;;;;14.59;99.00;100434.38;4937755;28;20371;-89
2023/07/27 05:30:25;;;;;;;3.80;2.38;;;;;;;14.60;98.73;100423.81;4938901;29;20088;-90
2023/07/27 05:32:51;;;;;;;2.83;2.20;;;;;;;14.61;98.75;100425.50;4943524;29;20036;-89
2023/07/27 05:35:16;;;;;;;2.90;2.00;;;;;;;14.60;98.77;100421.19;4938188;28;20452;-89
2023/07/27 05:37:46;;;;;;;3.13;1.77;;;;;;;14.61;99.35;100424.63;4938621;29;20075;-90
2023/07/27 05:40:15;;;;;;;3.38;2.00;;;;;;;14.62;99.29;100421.97;4934599;29;20039;-89
2023/07/27 05:42:41;;;;;;;2.50;2.05;;;;;;;14.63;99.90;100421.03;4939837;29;20483;-90
2023/07/27 05:45:07;;;;;;;2.83;1.80;;;;;;;14.66;99.25;100423.50;4942154;28;20115;-89
2023/07/27 05:47:32;;;;;;;2.55;2.00;;;;;;;14.68;100.00;100412.97;4941959;28;20431;-89
2023/07/27 05:49:58;;;;;;;2.50;1.77;;;;;;;14.66;100.00;100410.41;4940723;29;20065;-90
2023/07/27 05:52:24;;;;;;;2.30;1.70;;;;;;;14.68;100.00;100408.59;4946608;28;20051;-90
2023/07/27 05:54:49;;;;;;;2.28;1.70;;;;;;;14.69;100.00;100412.88;4941687;28;20102;-87
2023/07/27 05:57:14;;;;;;;3.10;1.80;;;;;;;14.71;100.00;100413.66;4937514;29;20451;-89
2023/07/27 05:59:39;;;;;;;1.88;1.60;;;;;;;14.72;100.00;100399.66;4941935;29;20075;-90
2023/07/27 06:02:06;;;;;;;2.35;1.50;;;;;;;14.75;100.00;100403.03;4938737;29;20084;-89
2023/07/27 06:04:31;;;;;;;2.40;1.70;;;;;;;14.75;100.00;100409.16;4952835;28;20452;-88
2023/07/27 06:06:57;;;;;;;2.25;1.55;;;;;;;14.77;100.00;100402.06;4945327;28;20062;-89
2023/07/27 06:09:23;;;;;;;1.90;1.40;;;;;;;14.80;100.00;100394.03;4936174;28;20391;-90
2023/07/27 06:11:48;;;;;;;2.15;1.50;;;;;;;14.83;100.00;100393.03;4934922;29;20055;-89
2023/07/27 06:14:13;;;;;;;3.83;1.58;;;;;;;14.86;100.00;100387.63;4937617;29;20372;-90
2023/07/27 06:16:39;;;;;;;2.08;1.45;;;;;;;14.90;100.00;100397.03;4937571;29;20035;-90
2023/07/27 06:19:04;;;;;;;2.38;1.58;;;;;;;14.94;100.00;100392.50;4939541;29;20557;-90
2023/07/27 06:21:29;;;;;;;1.75;1.42;;;;;;;14.97;100.00;100392.31;4953630;28;20587;-90
2023/07/27 06:23:55;;;;;;;1.75;1.40;;;;;;;15.00;100.00;100385.16;4949507;28;20531;-90
2023/07/27 06:26:20;;;;;;;1.35;1.23;;;;;;;15.05;100.00;100389.28;4954361;28;20023;-90
2023/07/27 06:28:45;;;;;;;2.50;1.40;;;;;;;15.09;100.00;100385.59;4945171;28;20478;-89
2023/07/27 06:31:10;;;;;;;2.00;1.30;;;;;;;15.12;100.00;100381.03;4937622;28;20039;-90
2023/07/27 06:33:36;;;;;;;1.63;1.35;;;;;;;15.16;100.00;100387.00;4934663;29;20055;-89
2023/07/27 06:36:02;;;;;;;1.42;1.20;;;;;;;15.16;100.00;100377.34;4935884;29;20045;-89
2023/07/27 06:38:27;;;;;;;1.52;1.23;;;;;;;15.17;100.00;100380.81;4939331;29;20031;-88
2023/07/27 06:40:52;;;;;;;1.40;1.17;;;;;;;15.19;100.00;100392.06;4939764;28;20032;-89
2023/07/27 06:43:17;;;;;;;1.98;1.13;;;;;;;15.22;100.00;100370.91;4944904;29;20049;-89
2023/07/27 06:45:43;;;;;;;1.67;1.27;;;;;;;15.26;100.00;100367.22;4943910;28;20039;-89
2023/07/27 06:48:08;;;;;;;1.52;1.10;;;;;;;15.30;100.00;100374.00;4936648;29;20117;-89
2023/07/27 06:50:33;;;;;;;1.23;0.98;;;;;;;15.32;100.00;100363.41;4948072;28;20034;-90
2023/07/27 06:52:58;;;;;;;1.40;0.88;;;;;;;15.35;100.00;100370.28;4947799;28;20028;-89
2023/07/27 06:55:24;;;;;;;1.60;1.00;;;;;;;15.36;100.00;100366.75;4936329;29;20031;-90
2023/07/27 06:57:49;;;;;;;1.27;0.90;;;;;;;15.38;100.00;100367.47;4946797;28;20134;-89
2023/07/27 07:00:15;;;;;;;1.30;1.00;;;;;;;15.41;100.00;100364.69;4942703;29;20497;-90
2023/07/27 07:02:40;;;;;;;1.55;1.00;;;;;;;15.44;100.00;100369.78;4937209;29;20111;-89
2023/07/27 07:05:06;;;;;;;0.90;0.85;;;;;;;15.46;100.00;100371.38;4945294;29;20039;-90
2023/07/27 07:07:31;;;;;;;1.00;0.90;;;;;;;15.48;100.00;100373.94;4933856;29;20034;-89
2023/07/27 07:09:56;;;;;;;1.02;0.90;;;;;;;15.50;100.00;100371.22;4939530;29;20362;-89
2023/07/27 07:12:22;;;;;;;1.15;0.80;;;;;;;15.54;100.00;100370.97;4940543;29;20039;-89
2023/07/27 07:14:47;;;;;;;1.38;0.95;;;;;;;15.56;100.00;100363.88;4942097;28;20035;-90
2023/07/27 07:17:13;;;;;;;0.90;0.70;;;;;;;15.58;100.00;100364.63;4935385;29;20046;-91
2023/07/27 07:19:38;;;;;;;1.30;1.00;;;;;;;15.61;100.00;100367.09;4939630;28;20039;-90
2023/07/27 07:22:04;;;;;;;0.77;0.70;;;;;;;15.63;100.00;100365.25;4943573;29;20027;-89
2023/07/27 07:24:29;;;;;;;1.20;0.90;;;;;;;15.65;100.00;100364.31;4945208;28;20027;-90
2023/07/27 07:26:55;;;;;;;1.08;0.98;;;;;;;15.67;100.00;100365.06;4941326;29;20737;-90
2023/07/27 07:29:21;;;;;;;0.80;0.80;;;;;;;15.69;100.00;100361.44;4945190;29;20087;-91
2023/07/27 07:31:47;;;;;;;1.40;0.93;;;;;;;15.72;100.00;100361.25;4945442;28;20034;-91
2023/07/27 07:34:12;;;;;;;1.00;0.90;;;;;;;15.75;100.00;100365.50;4940394;28;20055;-90
2023/07/27 07:36:37;;;;;;;1.45;1.00;;;;;;;15.78;100.00;100365.31;4944073;29;20432;-91
2023/07/27 07:39:02;;;;;;;1.10;0.90;;;;;;;15.79;100.00;100359.16;4939937;29;20119;-92
2023/07/27 07:41:28;;;;;;;1.23;1.00;;;;;;;15.84;100.00;100361.50;4944454;29;20379;-90
2023/07/27 07:43:53;;;;;;;1.30;1.00;;;;;;;15.87;100.00;100351.75;4941749;28;20035;-90
2023/07/27 07:46:19;;;;;;;1.30;0.95;;;;;;;15.91;100.00;100355.88;4944323;28;20027;-90
2023/07/27 07:48:44;;;;;;;1.40;1.20;;;;;;;15.95;100.00;100353.06;4943557;29;20031;-90
2023/07/27 07:51:14;;;;;;;1.85;1.30;;;;;;;15.99;100.00;100341.47;4944938;28;20020;-90
2023/07/27 07:53:40;;;;;;;1.73;1.20;;;;;;;16.03;100.00;100346.47;4940768;29;20417;-90
2023/07/27 07:56:15;;;;;;;1.27;1.10;;;;;;;16.06;100.00;100341.03;4945429;29;20066;-90
2023/07/27 07:58:41;;;;;;;1.50;1.20;;;;;;;16.10;100.00;100340.88;4944574;29;20062;-88
2023/07/27 08:01:07;;;;;;;2.92;1.13;;;;;;;16.13;100.00;100340.72;4942213;28;20063;-90
2023/07/27 08:03:32;;;;;;;1.63;1.20;;;;;;;16.15;100.00;100334.44;4945183;29;20046;-91
2023/07/27 08:05:58;;;;;;;2.90;1.48;;;;;;;16.17;100.00;100337.81;4940042;28;20441;-90
2023/07/27 08:08:23;;;;;;;1.30;1.15;;;;;;;16.20;100.00;100340.25;4940774;29;20019;-90
2023/07/27 08:10:49;;;;;;;1.50;1.27;;;;;;;16.27;100.00;100338.13;4937741;28;20063;-90
2023/07/27 08:13:14;;;;;;;1.50;1.23;;;;;;;16.32;100.00;100332.59;4940302;29;20034;-90
2023/07/27 08:15:39;;;;;;;2.17;1.30;;;;;;;16.35;100.00;100330.63;4943473;28;20506;-90
2023/07/27 08:18:05;;;;;;;1.38;1.20;;;;;;;16.41;100.00;100337.31;4943002;28;20386;-90
2023/07/27 08:20:30;;;;;;;1.20;1.10;;;;;;;16.42;100.00;100336.38;4939597;29;20163;-91
2023/07/27 08:22:55;;;;;;;1.10;1.00;;;;;;;16.43;100.00;100327.56;4948228;28;20027;-90
2023/07/27 08:25:21;;;;;;;1.45;1.13;;;;;;;16.45;100.00;100330.94;4937689;29;20023;-91
2023/07/27 08:27:47;;;;;;;1.40;0.90;;;;;;;16.47;100.00;100339.59;4945318;28;20070;-90
2023/07/27 08:30:13;;;;;;;1.73;0.80;;;;;;;16.48;100.00;100335.19;4945516;28;20031;-91
2023/07/27 08:32:40;;;;;;;1.15;0.80;;;;;;;16.52;100.00;100329.66;4941081;29;20099;-91
2023/07/27 08:35:05;;;;;;;0.80;0.80;;;;;;;16.55;100.00;100331.25;4940838;29;20038;-92
2023/07/27 08:37:31;;;;;;;0.85;0.80;;;;;;;16.59;100.00;100326.66;4946004;28;20030;-91
2023/07/27 08:39:58;;;;;;;1.55;0.90;;;;;;;16.64;100.00;100332.50;4940534;29;20032;-91
2023/07/27 08:42:23;;;;;;;1.13;0.80;;;;;;;16.67;100.00;100320.00;4943691;28;20106;-91
2023/07/27 08:44:49;;;;;;;1.58;0.85;;;;;;;16.72;100.00;100322.38;4940845;28;20163;-91
2023/07/27 08:47:14;;;;;;;0.88;0.80;;;;;;;16.75;100.00;100316.91;4941062;29;20035;-91
2023/07/27 08:49:42;;;;;;;1.10;0.90;;;;;;;16.78;100.00;100315.91;4941388;28;20026;-90
2023/07/27 08:52:09;;;;;;;1.00;0.90;;;;;;;16.81;100.00;100316.56;4939521;29;20154;-90
2023/07/27 08:54:34;;;;;;;1.65;1.08;;;;;;;16.82;100.00;100318.25;4942297;28;20027;-90
2023/07/27 08:57:00;;;;;;;2.15;1.20;;;;;;;16.85;100.00;100322.47;4942286;28;20033;-90
2023/07/27 08:59:25;;;;;;;1.73;1.20;;;;;;;16.91;100.00;100316.03;4939854;29;20023;-89
2023/07/27 09:01:51;;;;;;;1.80;1.38;;;;;;;16.97;100.00;100313.91;4942927;28;20023;-90
2023/07/27 09:04:16;;;;;;;1.35;1.25;;;;;;;17.04;100.00;100311.72;4944875;28;20368;-91
2023/07/27 09:06:44;;;;;;;1.63;1.10;;;;;;;17.10;100.00;100308.69;4946584;28;20384;-91
2023/07/27 09:09:13;;;;;;;1.50;1.17;;;;;;;17.17;100.00;100317.06;4946770;29;20047;-91
2023/07/27 09:11:39;;;;;;;2.53;1.02;;;;;;;17.22;100.00;100308.91;4940187;28;20051;-90
2023/07/27 09:14:04;;;;;;;1.02;0.93;;;;;;;17.27;100.00;100312.94;4941376;29;20034;-91
2023/07/27 09:16:34;;;;;;;1.08;0.98;;;;;;;17.28;100.00;100312.00;4943239;29;20027;-90
2023/07/27 09:19:00;;;;;;;1.80;1.17;;;;;;;17.30;100.00;100309.25;4942974;28;20031;-91
2023/07/27 09:21:26;;;;;;;0.90;0.90;;;;;;;17.31;100.00;100308.31;4934326;29;20027;-91
2023/07/27 09:23:52;;;;;;;1.27;0.98;;;;;;;17.31;100.00;100318.84;4938336;28;20135;-90
2023/07/27 09:26:24;;;;;;;1.17;0.90;;;;;;;17.31;100.00;100308.31;4943595;28;20027;-91
2023/07/27 09:28:50;;;;;;;1.10;0.85;;;;;;;17.32;100.00;100310.00;4943079;29;20030;-90
2023/07/27 09:31:15;;;;;;;0.80;0.80;;;;;;;17.33;100.00;100311.69;4934542;29;20031;-86
2023/07/27 09:33:40;;;;;;;1.10;0.90;;;;;;;17.34;100.00;100308.13;4937006;28;20118;-91
2023/07/27 09:36:11;;;;;;;2.35;1.00;;;;;;;17.36;100.00;100305.38;4956586;28;20042;-93
2023/07/27 09:38:40;;;;;;;1.95;1.00;;;;;;;17.41;100.00;100305.94;4942191;29;20027;-94
2023/07/27 09:41:33;;;;;;;1.23;1.00;;;;;;;17.45;100.00;100316.16;4944645;29;20036;-95
2023/07/27 09:43:58;;;;;;;1.17;0.90;;;;;;;17.48;100.00;100311.66;4939634;28;20119;-92
2023/07/27 09:46:23;;;;;;;1.23;0.95;;;;;;;17.53;100.00;100313.06;4941970;28;20646;-93
2023/07/27 09:48:49;;;;;;;2.15;1.00;;;;;;;17.60;100.00;100308.25;4941662;29;20023;-94
2023/07/27 09:51:18;;;;;;;2.28;1.10;;;;;;;17.65;100.00;100300.91;4939974;29;20046;-93
2023/07/27 09:53:44;;;;;;;1.58;1.08;;;;;;;17.69;100.00;100305.03;4938182;28;20035;-91
2023/07/27 09:56:14;;;;;;;2.10;0.90;;;;;;;17.67;100.00;100304.28;4941693;28;20106;-91
2023/07/27 09:58:41;;;;;;;2.17;0.90;;;;;;;17.64;100.00;100301.84;4938760;28;20027;-92
2023/07/27 10:01:06;;;;;;;1.48;1.00;;;;;;;17.59;100.00;100312.69;4945224;28;20051;-91
2023/07/27 10:03:32;;;;;;;1.00;0.80;;;;;;;17.57;100.00;100316.34;4941154;29;20059;-90
2023/07/27 10:05:59;;;;;;;1.98;0.90;;;;;;;17.57;100.00;100311.94;4946048;28;20506;-88
2023/07/27 10:08:24;;;;;;;1.77;0.90;;;;;;;17.56;100.00;100307.59;4945089;28;20387;-89
2023/07/27 10:10:54;;;;;;;1.38;0.95;;;;;;;17.56;100.00;100312.03;4940255;28;20051;-91
2023/07/27 10:13:22;;;;;;;1.55;0.90;;;;;;;17.53;100.00;100318.31;4941995;28;20250;-90
2023/07/27 10:15:49;;;;;;;1.60;0.80;;;;;;;17.52;100.00;100316.63;4940773;28;20511;-92
2023/07/27 10:18:14;;;;;;;3.17;0.73;;;;;;;17.56;100.00;100312.88;4944708;28;20042;-89
2023/07/27 10:20:40;;;;;;;0.90;0.80;;;;;;;17.63;100.00;100304.59;4940692;28;20031;-92
2023/07/27 10:23:20;;;;;;;1.02;0.73;;;;;;;17.65;100.00;100305.34;4941966;28;20039;-91
2023/07/27 10:26:00;;;;;;;1.13;0.90;;;;;;;17.71;99.86;100310.19;4940706;28;20070;-89
2023/07/27 10:28:29;;;;;;;2.55;0.85;;;;;;;17.74;100.00;100316.13;4943326;28;20090;-90
2023/07/27 10:31:13;;;;;;;0.90;0.80;;;;;;;17.81;99.28;100307.81;4948527;28;20030;-91
2023/07/27 10:33:38;;;;;;;0.90;0.80;;;;;;;17.88;99.76;100306.47;4945017;28;20027;-91
2023/07/27 10:36:04;;;;;;;1.77;0.80;;;;;;;17.95;99.72;100309.56;4943854;28;20478;-92
2023/07/27 10:38:32;;;;;;;1.30;1.00;;;;;;;17.98;100.00;100307.59;4945684;28;20027;-92
2023/07/27 10:41:14;;;;;;;1.50;0.70;;;;;;;17.98;99.67;100312.84;4948392;28;20033;-92
2023/07/27 10:44:14;;;;;;;0.55;0.55;;;;;;;17.94;99.90;100310.50;4948590;28;20031;-91
2023/07/27 10:46:44;;;;;;;0.70;0.68;;;;;;;17.90;100.00;100304.59;4938079;28;20039;-91
2023/07/27 10:49:11;;;;;;;1.50;0.55;;;;;;;17.92;100.00;100307.13;4948999;28;20043;-90
2023/07/27 10:51:40;;;;;;;0.70;0.60;;;;;;;17.91;100.00;100316.81;4943736;28;20105;-88
2023/07/27 10:54:08;;;;;;;1.10;0.70;;;;;;;17.93;100.00;100309.66;4947481;28;20491;-89
2023/07/27 10:56:34;;;;;;;0.88;0.70;;;;;;;17.93;99.99;100312.31;4944267;28;20641;-90
2023/07/27 10:59:00;;;;;;;1.90;1.27;;;;;;;17.93;100.00;100317.56;4947135;28;20119;-89
2023/07/27 11:01:28;;;;;;;1.13;0.90;;;;;;;17.92;100.00;100315.88;4945370;28;20082;-89
2023/07/27 11:03:57;;;;;;;1.42;0.90;;;;;;;17.93;100.00;100308.81;4944717;28;20034;-89
2023/07/27 11:06:29;;;;;;;1.00;0.75;;;;;;;17.96;100.00;100306.81;4946013;28;20046;-94
2023/07/27 11:08:56;;;;;;;0.80;0.80;;;;;;;17.98;100.00;100312.84;4946616;28;20034;-88
2023/07/27 11:11:23;;;;;;;1.83;0.68;;;;;;;17.98;100.00;100304.13;4943427;28;20134;-91
2023/07/27 11:13:49;;;;;;;0.80;0.80;;;;;;;17.98;100.00;100312.03;4941302;28;20142;-90
2023/07/27 11:16:15;;;;;;;0.60;0.60;;;;;;;17.95;100.00;100305.13;4943710;28;20035;-90
2023/07/27 11:18:42;;;;;;;0.90;0.80;;;;;;;17.95;100.00;100306.91;4945835;28;20031;-90
2023/07/27 11:21:11;;;;;;;1.13;0.60;;;;;;;17.98;100.00;100307.59;4944342;28;20059;-95